Idre Storbo, Sweden

9:21 AM CEST on August 21, 2014 (GMT +0200)
Roros | Change Station
CLOSE
Current Station
Airport
Location: Roros Lufthavn,
Elevation: 2054 ft
Nearby Weather Stations

Elev 2054 ft 62.58 °N, 11.34 °E | Updated 31 minutes ago

Mostly Cloudy
Mostly Cloudy
48 °F
Feels Like 48 °F
N
5
Wind Variable Wind from WSW

Today
High -- | Low -- °F
--% Chance of Precip.
Yesterday
High -- | Low -- °F
Precip. -- in
5:31 AM 8:55 PM
Waning Crescent, 16% visible
Pressure 29.53 in
Visibility 6.2 miles
Clouds Mostly Cloudy 1800 ft
Dew Point 45 °F
Humidity 87%
Rainfall 0.00 in
Snow Depth Not available.
UV 1 out of 12
Pollen Not available.
Air Quality Not available.
Flu Activity Not available.
METAR ENRO 210650Z 25004KT 220V280 9999 BKN018 09/07 Q1000

More Conditions Fewer Conditions

Pressure 29.53 in
Visibility 6.2 miles
Clouds Mostly Cloudy 1800 ft
Dew Point 45 °F
Humidity 87%
Rainfall 0.00 in
Snow Depth Not available.
UV 1 out of 12
Pollen Not available.
Air Quality Not available.
Flu Activity Not available.
METAR ENRO 210650Z 25004KT 220V280 9999 BKN018 09/07 Q1000

More Conditions Fewer Conditions

10-Day Weather Forecast

Almanac

Astronomy

Aug. 21, 2014 Rise Set
Actual Time 5:31 AM CEST 8:55 PM CEST
Civil Twilight 4:37 AM CEST 9:47 PM CEST
Nautical Twilight 3:18 AM CEST 11:04 PM CEST
Astronomical Twilight 1:46 AM CEST 12:41 AM CEST
Moon 1:12 AM CEST 6:40 PM CEST
Length of Visible Light 17h 09m
Length of Day
15h 24m
Tomorrow will be 5m 48s shorter.
Waning Crescent, 16% of the Moon is Illuminated
Today
Waning Crescent
Aug 25
New
Sep 2
First Quarter
Sep 8
Full
Sep 15
Last Quarter

Yesterday's Extremes

Country Highs Country Lows

Community

WunderPhotos

Upload Photos

1,745,858 photos uploaded!

Nearby

Snow Depth

Not available.

Earthquake Activity

City Distance Mag. Time & Date
No recent earthquake activity has been reported nearby.
Minimum magnitude displayed is 2.5.

Coastal Water Temperatures

Place Temperature
No Stations Reporting

Nearby Weather Stations